Time;durP1;ratioP1;P1;durP2;ratioP2;P2;SDS_P1;SDS_P2;PMS_P1;PMS_P2;Temp;Humidity;BMP_temperature;BMP_pressure;BME280_temperature;BME280_humidity;BME280_pressure;Samples;Min_cycle;Max_cycle;Signal;HPM_P1;HPM_P2
2021/08/01 00:01:23;;;;;;;8.93;5.47;;;;;;;;;;5010986;28;20543;-61
2021/08/01 00:03:50;;;;;;;6.78;5.03;;;;;;;;;;5003365;28;20116;-62
2021/08/01 00:06:15;;;;;;;8.57;5.60;;;;;;;;;;5008983;28;20125;-62
2021/08/01 00:08:41;;;;;;;7.75;5.82;;;;;;;;;;5009153;28;20544;-62
2021/08/01 00:11:06;;;;;;;9.52;5.70;;;;;;;;;;5012031;28;20116;-62
2021/08/01 00:13:32;;;;;;;8.48;6.00;;;;;;;;;;5013772;28;20488;-61
2021/08/01 00:15:59;;;;;;;7.78;5.45;;;;;;;;;;5011119;28;20029;-61
2021/08/01 00:18:24;;;;;;;8.48;5.53;;;;;;;;;;5010116;28;20527;-63
2021/08/01 00:20:49;;;;;;;10.05;6.00;;;;;;;;;;5011475;28;20038;-62
2021/08/01 00:23:15;;;;;;;10.82;6.45;;;;;;;;;;5010849;28;20026;-62
2021/08/01 00:25:40;;;;;;;10.80;6.22;;;;;;;;;;5011358;28;20030;-61
2021/08/01 00:28:06;;;;;;;8.95;6.50;;;;;;;;;;5009869;28;20079;-62
2021/08/01 00:30:31;;;;;;;11.18;6.50;;;;;;;;;;5011463;28;20116;-62
2021/08/01 00:32:57;;;;;;;8.95;5.88;;;;;;;;;;5010549;28;20037;-62
2021/08/01 00:35:22;;;;;;;8.35;6.07;;;;;;;;;;5010738;28;20026;-62
2021/08/01 00:37:48;;;;;;;9.27;6.25;;;;;;;;;;5010524;28;20463;-61
2021/08/01 00:40:13;;;;;;;7.70;6.47;;;;;;;;;;5009636;28;20548;-61
2021/08/01 00:42:41;;;;;;;7.57;5.90;;;;;;;;;;5007594;28;20030;-62
2021/08/01 00:45:07;;;;;;;9.85;6.50;;;;;;;;;;5010304;28;20507;-61
2021/08/01 00:47:34;;;;;;;10.23;6.40;;;;;;;;;;5010396;28;20041;-62
2021/08/01 00:50:05;;;;;;;11.60;5.97;;;;;;;;;;5010268;28;20088;-61
2021/08/01 00:52:31;;;;;;;10.65;5.63;;;;;;;;;;5010241;28;20030;-61
2021/08/01 00:54:56;;;;;;;11.48;6.20;;;;;;;;;;5005458;28;20026;-61
2021/08/01 00:57:22;;;;;;;8.57;5.57;;;;;;;;;;5008352;28;20038;-62
2021/08/01 00:59:47;;;;;;;10.25;6.13;;;;;;;;;;5009195;28;20026;-62
2021/08/01 01:02:18;;;;;;;12.98;5.95;;;;;;;;;;5008960;28;20488;-62
2021/08/01 01:05:27;;;;;;;11.52;6.10;;;;;;;;;;5010280;28;20267;-62
2021/08/01 01:08:10;;;;;;;12.20;6.43;;;;;;;;;;5008383;28;20025;-61
2021/08/01 01:10:40;;;;;;;10.98;6.07;;;;;;;;;;5009856;28;20026;-62
2021/08/01 01:13:10;;;;;;;8.35;5.63;;;;;;;;;;5009814;28;20037;-62
2021/08/01 01:15:45;;;;;;;9.30;5.68;;;;;;;;;;5010244;28;20448;-62
2021/08/01 01:18:15;;;;;;;9.77;5.75;;;;;;;;;;5007902;28;20045;-62
2021/08/01 01:21:04;;;;;;;12.02;6.00;;;;;;;;;;5010109;28;20037;-62
2021/08/01 01:23:44;;;;;;;10.73;6.55;;;;;;;;;;5008398;28;20120;-62
2021/08/01 01:26:24;;;;;;;7.22;5.80;;;;;;;;;;5010129;28;20488;-62
2021/08/01 01:29:23;;;;;;;8.23;5.95;;;;;;;;;;5009655;28;20061;-62
2021/08/01 01:31:53;;;;;;;11.10;5.63;;;;;;;;;;5009235;28;20037;-62
2021/08/01 01:34:27;;;;;;;10.48;6.15;;;;;;;;;;5008672;28;20281;-61
2021/08/01 01:36:54;;;;;;;6.65;4.80;;;;;;;;;;5008250;28;20480;-62
2021/08/01 01:39:21;;;;;;;7.15;5.05;;;;;;;;;;5008373;28;20021;-62
2021/08/01 01:41:47;;;;;;;10.80;5.75;;;;;;;;;;5009312;28;20030;-62
2021/08/01 01:44:13;;;;;;;9.63;5.10;;;;;;;;;;5007576;28;20030;-61
2021/08/01 01:46:40;;;;;;;6.80;4.75;;;;;;;;;;5009058;28;20030;-62
2021/08/01 01:49:08;;;;;;;5.47;4.70;;;;;;;;;;5009376;28;20087;-62
2021/08/01 01:51:35;;;;;;;8.13;5.13;;;;;;;;;;5009275;28;20044;-62
2021/08/01 01:54:00;;;;;;;9.63;5.15;;;;;;;;;;5007771;28;20037;-62
2021/08/01 01:56:29;;;;;;;8.73;5.40;;;;;;;;;;5008813;28;20030;-62
2021/08/01 01:58:55;;;;;;;5.82;5.07;;;;;;;;;;5009122;28;20034;-61
2021/08/01 02:01:21;;;;;;;7.75;5.65;;;;;;;;;;5007491;28;20037;-62
2021/08/01 02:03:47;;;;;;;12.32;5.43;;;;;;;;;;5009296;28;20073;-62
2021/08/01 02:06:15;;;;;;;7.50;4.72;;;;;;;;;;5008908;28;20029;-62
2021/08/01 02:08:59;;;;;;;10.57;4.85;;;;;;;;;;5008515;28;20108;-62
2021/08/01 02:11:29;;;;;;;5.50;4.43;;;;;;;;;;5009312;28;20037;-62
2021/08/01 02:14:10;;;;;;;6.93;4.20;;;;;;;;;;5009386;28;20025;-62
2021/08/01 02:16:39;;;;;;;6.47;4.25;;;;;;;;;;5008346;28;20476;-62
2021/08/01 02:19:08;;;;;;;8.60;4.57;;;;;;;;;;5002242;28;20050;-62
2021/08/01 02:21:34;;;;;;;6.95;4.70;;;;;;;;;;5009211;28;20091;-62
2021/08/01 02:24:02;;;;;;;7.03;4.38;;;;;;;;;;5006898;28;20034;-62
2021/08/01 02:26:28;;;;;;;8.05;4.38;;;;;;;;;;5009200;28;20037;-61
2021/08/01 02:28:54;;;;;;;7.28;4.40;;;;;;;;;;5007459;28;20396;-61
2021/08/01 02:31:21;;;;;;;7.60;4.18;;;;;;;;;;5007888;28;20037;-62
2021/08/01 02:33:48;;;;;;;8.77;4.57;;;;;;;;;;5007094;28;20025;-62
2021/08/01 02:36:14;;;;;;;6.70;5.03;;;;;;;;;;5008676;28;20641;-62
2021/08/01 02:38:42;;;;;;;7.53;4.45;;;;;;;;;;5007984;28;20422;-61
2021/08/01 02:41:17;;;;;;;8.02;4.95;;;;;;;;;;5006955;28;20041;-62
2021/08/01 02:43:45;;;;;;;7.90;4.78;;;;;;;;;;5008893;28;20079;-62
2021/08/01 02:46:11;;;;;;;8.60;4.43;;;;;;;;;;5008702;28;20508;-62
2021/08/01 02:48:37;;;;;;;9.00;4.13;;;;;;;;;;5006985;28;20026;-62
2021/08/01 02:51:05;;;;;;;5.88;3.88;;;;;;;;;;5008358;28;20412;-62
2021/08/01 02:53:36;;;;;;;8.27;4.32;;;;;;;;;;5008411;28;20492;-61
2021/08/01 02:56:04;;;;;;;4.38;3.78;;;;;;;;;;5009394;28;20349;-61
2021/08/01 02:58:31;;;;;;;8.48;4.20;;;;;;;;;;5006071;28;20036;-62
2021/08/01 03:00:59;;;;;;;5.70;4.13;;;;;;;;;;5008845;28;20492;-61
2021/08/01 03:03:27;;;;;;;7.03;3.65;;;;;;;;;;5008506;28;20071;-63
2021/08/01 03:05:53;;;;;;;5.45;3.70;;;;;;;;;;5004689;28;20028;-63
2021/08/01 03:08:19;;;;;;;8.63;4.03;;;;;;;;;;5016573;28;20484;-62
2021/08/01 03:10:46;;;;;;;7.07;4.35;;;;;;;;;;5012626;28;20041;-62
2021/08/01 03:13:12;;;;;;;5.47;3.67;;;;;;;;;;5012450;28;20079;-63
2021/08/01 03:15:38;;;;;;;6.43;3.60;;;;;;;;;;5011961;28;20030;-62
2021/08/01 03:18:03;;;;;;;5.65;4.00;;;;;;;;;;5010614;28;20368;-63
2021/08/01 03:20:29;;;;;;;4.82;3.67;;;;;;;;;;5010971;28;20076;-63
2021/08/01 03:22:54;;;;;;;5.10;3.47;;;;;;;;;;5011976;28;20451;-63
2021/08/01 03:25:20;;;;;;;6.03;3.70;;;;;;;;;;5012459;28;20104;-63
2021/08/01 03:27:45;;;;;;;6.75;4.10;;;;;;;;;;5011760;28;20038;-62
2021/08/01 03:30:11;;;;;;;6.95;3.90;;;;;;;;;;5011583;28;20030;-62
2021/08/01 03:32:36;;;;;;;5.30;3.60;;;;;;;;;;5011442;28;20029;-63
2021/08/01 03:35:02;;;;;;;6.68;4.35;;;;;;;;;;5012552;28;20014;-63
2021/08/01 03:37:27;;;;;;;5.20;4.00;;;;;;;;;;5009801;28;20385;-63
2021/08/01 03:39:54;;;;;;;5.68;3.88;;;;;;;;;;5011658;28;20022;-63
2021/08/01 03:42:19;;;;;;;5.05;3.65;;;;;;;;;;5011076;28;20072;-62
2021/08/01 03:44:45;;;;;;;5.95;3.67;;;;;;;;;;5012278;28;20030;-62
2021/08/01 03:47:11;;;;;;;6.15;3.83;;;;;;;;;;5011922;28;20049;-61
2021/08/01 03:49:36;;;;;;;5.70;3.83;;;;;;;;;;5009370;28;20026;-62
2021/08/01 03:52:02;;;;;;;10.07;4.07;;;;;;;;;;5012048;28;20048;-62
2021/08/01 03:54:27;;;;;;;5.85;3.72;;;;;;;;;;5007453;28;20022;-62
2021/08/01 03:56:53;;;;;;;5.63;3.78;;;;;;;;;;5012042;28;20115;-62
2021/08/01 03:59:18;;;;;;;5.53;4.05;;;;;;;;;;5010680;28;20025;-61
2021/08/01 04:01:44;;;;;;;7.22;4.00;;;;;;;;;;5010673;28;20384;-61
2021/08/01 04:04:10;;;;;;;5.45;3.90;;;;;;;;;;5012193;28;20030;-62
2021/08/01 04:06:36;;;;;;;7.05;4.57;;;;;;;;;;5010327;28;20073;-62
2021/08/01 04:09:04;;;;;;;6.00;4.53;;;;;;;;;;5011784;28;20029;-62
2021/08/01 04:11:30;;;;;;;5.38;4.00;;;;;;;;;;5011217;28;20034;-62
2021/08/01 04:13:56;;;;;;;6.38;4.20;;;;;;;;;;5011839;28;20475;-62
2021/08/01 04:16:21;;;;;;;5.57;3.78;;;;;;;;;;5014949;28;20037;-62
2021/08/01 04:18:47;;;;;;;5.35;3.80;;;;;;;;;;5011248;28;20038;-62
2021/08/01 04:21:13;;;;;;;5.70;4.50;;;;;;;;;;5011676;28;20026;-62
2021/08/01 04:23:39;;;;;;;6.13;4.25;;;;;;;;;;5010635;28;20073;-62
2021/08/01 04:26:07;;;;;;;5.60;4.20;;;;;;;;;;5011951;28;20133;-62
2021/08/01 04:28:33;;;;;;;5.95;4.20;;;;;;;;;;5009303;28;20030;-62
2021/08/01 04:30:58;;;;;;;5.53;4.35;;;;;;;;;;5010976;28;20117;-62
2021/08/01 04:33:24;;;;;;;5.05;4.05;;;;;;;;;;5010612;28;20112;-62
2021/08/01 04:35:49;;;;;;;5.65;4.80;;;;;;;;;;5011242;28;20028;-62
2021/08/01 04:38:15;;;;;;;6.45;4.63;;;;;;;;;;5010598;28;20037;-62
2021/08/01 04:40:40;;;;;;;7.35;4.82;;;;;;;;;;5010442;28;20499;-62
2021/08/01 04:43:06;;;;;;;6.40;4.45;;;;;;;;;;5011091;28;20029;-62
2021/08/01 04:45:31;;;;;;;5.07;4.43;;;;;;;;;;5010911;28;20026;-61
2021/08/01 04:47:57;;;;;;;5.60;4.22;;;;;;;;;;5009831;28;20509;-61
2021/08/01 04:50:22;;;;;;;5.43;3.67;;;;;;;;;;5008447;28;20108;-61
2021/08/01 04:52:52;;;;;;;6.45;4.53;;;;;;;;;;5010258;28;20461;-61
2021/08/01 04:55:18;;;;;;;5.97;4.22;;;;;;;;;;5010655;28;20064;-62
2021/08/01 04:57:44;;;;;;;6.18;4.15;;;;;;;;;;5007838;28;20029;-61
2021/08/01 05:00:10;;;;;;;5.93;3.90;;;;;;;;;;5010908;28;20026;-62
2021/08/01 05:02:35;;;;;;;7.00;4.20;;;;;;;;;;5010927;28;20452;-61
2021/08/01 05:05:02;;;;;;;5.70;4.20;;;;;;;;;;5010786;28;20018;-62
2021/08/01 05:07:28;;;;;;;6.65;4.55;;;;;;;;;;5008488;28;20056;-61
2021/08/01 05:09:54;;;;;;;6.10;4.82;;;;;;;;;;5004910;28;20037;-61
2021/08/01 05:12:19;;;;;;;7.07;4.63;;;;;;;;;;5006140;28;20029;-61
2021/08/01 05:14:45;;;;;;;6.43;4.57;;;;;;;;;;5009691;28;20044;-61
2021/08/01 05:17:14;;;;;;;9.07;4.78;;;;;;;;;;5009044;28;20021;-61
2021/08/01 05:19:40;;;;;;;6.28;4.45;;;;;;;;;;5009408;28;20055;-61
2021/08/01 05:22:07;;;;;;;11.25;5.30;;;;;;;;;;5009922;28;20500;-61
2021/08/01 05:24:36;;;;;;;6.43;4.38;;;;;;;;;;5010106;28;20061;-61
2021/08/01 05:27:01;;;;;;;6.20;4.43;;;;;;;;;;5009903;28;20112;-60
2021/08/01 05:29:27;;;;;;;8.68;4.80;;;;;;;;;;5009305;28;20116;-61
2021/08/01 05:31:54;;;;;;;6.22;4.60;;;;;;;;;;5008645;28;20248;-60
2021/08/01 05:34:20;;;;;;;7.05;4.93;;;;;;;;;;5010042;28;20030;-60
2021/08/01 05:36:46;;;;;;;6.60;4.32;;;;;;;;;;5010200;28;20420;-60
2021/08/01 05:39:11;;;;;;;6.65;4.70;;;;;;;;;;5009499;28;20037;-60
2021/08/01 05:41:37;;;;;;;8.25;4.72;;;;;;;;;;5009490;28;20061;-60
2021/08/01 05:44:02;;;;;;;5.78;4.70;;;;;;;;;;5008882;28;20438;-60
2021/08/01 05:46:28;;;;;;;6.45;4.15;;;;;;;;;;5009509;28;20044;-60
2021/08/01 05:48:53;;;;;;;7.05;4.70;;;;;;;;;;5008079;28;20452;-60
2021/08/01 05:51:20;;;;;;;7.88;4.40;;;;;;;;;;5008444;28;20117;-61
2021/08/01 05:53:45;;;;;;;6.53;4.80;;;;;;;;;;5009762;28;20079;-61
2021/08/01 05:56:12;;;;;;;5.38;4.65;;;;;;;;;;5009671;28;20025;-61
2021/08/01 05:58:38;;;;;;;6.38;4.50;;;;;;;;;;5008814;28;20083;-61
2021/08/01 06:01:15;;;;;;;7.95;4.72;;;;;;;;;;5008982;28;20030;-60
2021/08/01 06:03:41;;;;;;;5.75;4.25;;;;;;;;;;5009263;28;20492;-61
2021/08/01 06:06:16;;;;;;;7.05;4.45;;;;;;;;;;5007670;28;20057;-60
2021/08/01 06:08:44;;;;;;;7.82;4.90;;;;;;;;;;5021768;28;20025;-60
2021/08/01 06:11:10;;;;;;;5.63;4.20;;;;;;;;;;5009549;28;20080;-61
2021/08/01 06:13:36;;;;;;;6.78;4.70;;;;;;;;;;5009020;28;20029;-60
2021/08/01 06:16:03;;;;;;;5.75;4.90;;;;;;;;;;5009053;28;20489;-60
2021/08/01 06:18:28;;;;;;;8.50;4.85;;;;;;;;;;5015016;28;20383;-60
2021/08/01 06:21:06;;;;;;;6.35;4.88;;;;;;;;;;5006850;28;20022;-61
2021/08/01 06:23:33;;;;;;;10.57;7.18;;;;;;;;;;5008703;28;20413;-60
2021/08/01 06:25:58;;;;;;;11.88;7.03;;;;;;;;;;5009065;28;20499;-60
2021/08/01 06:28:24;;;;;;;8.00;4.63;;;;;;;;;;5008712;28;20120;-60
2021/08/01 06:30:49;;;;;;;8.23;4.65;;;;;;;;;;5008418;28;20113;-60
2021/08/01 06:33:15;;;;;;;6.43;4.90;;;;;;;;;;4988612;28;20038;-60
2021/08/01 06:35:40;;;;;;;8.93;5.97;;;;;;;;;;5009023;28;20038;-60
2021/08/01 06:38:05;;;;;;;10.45;6.63;;;;;;;;;;5007312;28;20022;-59
2021/08/01 06:40:31;;;;;;;8.02;5.88;;;;;;;;;;5008041;28;20413;-59
2021/08/01 06:42:56;;;;;;;5.65;5.00;;;;;;;;;;5008966;28;20022;-59
2021/08/01 06:45:22;;;;;;;8.52;6.28;;;;;;;;;;5008132;28;20034;-59
2021/08/01 06:47:47;;;;;;;12.82;6.40;;;;;;;;;;5008159;28;20025;-60
2021/08/01 06:50:12;;;;;;;9.13;5.80;;;;;;;;;;5009120;28;20678;-59
2021/08/01 06:52:38;;;;;;;7.57;5.13;;;;;;;;;;5008366;28;20042;-59
2021/08/01 06:55:04;;;;;;;7.85;4.80;;;;;;;;;;5007701;28;20069;-60
2021/08/01 06:57:29;;;;;;;5.95;4.72;;;;;;;;;;5008765;28;20551;-60
2021/08/01 06:59:55;;;;;;;7.13;5.15;;;;;;;;;;5006915;28;20040;-60
2021/08/01 07:02:20;;;;;;;6.63;5.00;;;;;;;;;;5007364;28;20030;-60
2021/08/01 07:04:45;;;;;;;6.03;4.95;;;;;;;;;;5008994;28;20018;-60
2021/08/01 07:07:11;;;;;;;6.38;5.35;;;;;;;;;;5007146;28;20164;-61
2021/08/01 07:09:40;;;;;;;8.27;5.38;;;;;;;;;;5007056;28;20033;-60
2021/08/01 07:12:09;;;;;;;;;;;;;;;;;;5006037;28;20223;-60
2021/08/01 07:14:35;;;;;;;8.13;5.32;;;;;;;;;;5008784;28;19914;-60
2021/08/01 07:17:01;;;;;;;7.57;5.10;;;;;;;;;;5008399;28;20022;-60
2021/08/01 07:19:27;;;;;;;6.38;4.90;;;;;;;;;;5007284;28;20111;-60
2021/08/01 07:21:52;;;;;;;5.72;4.88;;;;;;;;;;5008539;28;20014;-60
2021/08/01 07:24:18;;;;;;;6.43;5.47;;;;;;;;;;5008666;28;20045;-60
2021/08/01 07:26:45;;;;;;;8.88;5.40;;;;;;;;;;5008627;28;20519;-60
2021/08/01 07:29:10;;;;;;;5.97;4.72;;;;;;;;;;5008228;28;20022;-60
2021/08/01 07:31:36;;;;;;;7.13;5.13;;;;;;;;;;5007680;28;20381;-60
2021/08/01 07:34:01;;;;;;;6.47;5.15;;;;;;;;;;4991184;28;20488;-60
2021/08/01 07:36:28;;;;;;;8.77;4.75;;;;;;;;;;5007694;28;20025;-60
2021/08/01 07:38:53;;;;;;;7.60;5.88;;;;;;;;;;5008367;28;20033;-60
2021/08/01 07:41:19;;;;;;;13.15;8.93;;;;;;;;;;5007277;28;20110;-60
2021/08/01 07:43:44;;;;;;;11.73;8.07;;;;;;;;;;5006398;28;20484;-60
2021/08/01 07:46:09;;;;;;;10.07;6.85;;;;;;;;;;5007671;28;20030;-60
2021/08/01 07:48:35;;;;;;;9.43;6.00;;;;;;;;;;5007536;28;20053;-60
2021/08/01 07:51:00;;;;;;;7.82;5.25;;;;;;;;;;5010060;28;20029;-60
2021/08/01 07:53:26;;;;;;;7.10;5.75;;;;;;;;;;5010764;28;20665;-60
2021/08/01 07:55:52;;;;;;;10.90;7.00;;;;;;;;;;5016029;28;20026;-61
2021/08/01 07:58:17;;;;;;;7.75;5.63;;;;;;;;;;5008721;28;20516;-60
2021/08/01 08:00:43;;;;;;;6.45;5.18;;;;;;;;;;5010808;28;20042;-60
2021/08/01 08:03:08;;;;;;;9.35;5.05;;;;;;;;;;5011174;28;20060;-60
2021/08/01 08:05:33;;;;;;;7.53;4.95;;;;;;;;;;5011215;28;20376;-61
2021/08/01 08:07:59;;;;;;;6.75;4.97;;;;;;;;;;5010846;28;20025;-61
2021/08/01 08:10:24;;;;;;;6.68;5.20;;;;;;;;;;5009783;28;20088;-60
2021/08/01 08:12:50;;;;;;;7.30;5.03;;;;;;;;;;5015484;28;20038;-60
2021/08/01 08:15:16;;;;;;;6.05;4.88;;;;;;;;;;5010982;28;20385;-61
2021/08/01 08:17:42;;;;;;;10.40;5.35;;;;;;;;;;5009988;28;20567;-59
2021/08/01 08:20:09;;;;;;;6.38;5.18;;;;;;;;;;5011535;28;20029;-60
2021/08/01 08:22:35;;;;;;;6.20;5.00;;;;;;;;;;5010790;28;20112;-60
2021/08/01 08:25:01;;;;;;;7.93;5.20;;;;;;;;;;5011802;28;20101;-60
2021/08/01 08:27:26;;;;;;;6.40;4.85;;;;;;;;;;5010516;28;20492;-60
2021/08/01 08:29:51;;;;;;;5.97;4.55;;;;;;;;;;5029707;28;20041;-60
2021/08/01 08:32:17;;;;;;;8.02;4.63;;;;;;;;;;5010616;28;20546;-61
2021/08/01 08:34:42;;;;;;;6.13;5.03;;;;;;;;;;5009753;28;20030;-61
2021/08/01 08:37:09;;;;;;;7.32;4.90;;;;;;;;;;5010978;28;20037;-61
2021/08/01 08:39:34;;;;;;;6.57;5.05;;;;;;;;;;5010328;28;20022;-61
2021/08/01 08:42:00;;;;;;;7.50;5.22;;;;;;;;;;5011092;28;20068;-61
2021/08/01 08:44:27;;;;;;;7.00;5.25;;;;;;;;;;5011031;28;20100;-61
2021/08/01 08:46:54;;;;;;;7.05;5.60;;;;;;;;;;5025244;28;20568;-61
2021/08/01 08:49:21;;;;;;;6.18;4.63;;;;;;;;;;5010481;28;20056;-61
2021/08/01 08:51:48;;;;;;;8.05;5.15;;;;;;;;;;5010151;28;20173;-60
2021/08/01 08:54:26;;;;;;;7.53;4.85;;;;;;;;;;5008532;28;20078;-61
2021/08/01 08:56:54;;;;;;;6.90;5.53;;;;;;;;;;5009282;28;20176;-61
2021/08/01 08:59:22;;;;;;;7.65;5.18;;;;;;;;;;5011951;28;20459;-61
2021/08/01 09:01:47;;;;;;;7.93;5.20;;;;;;;;;;5009079;28;20041;-61
2021/08/01 09:04:13;;;;;;;10.00;6.00;;;;;;;;;;5009675;28;20026;-61
2021/08/01 09:06:39;;;;;;;7.85;5.20;;;;;;;;;;5009126;28;20544;-61
2021/08/01 09:09:04;;;;;;;6.32;5.47;;;;;;;;;;5010115;28;20500;-62
2021/08/01 09:11:30;;;;;;;8.80;5.28;;;;;;;;;;5010252;28;20315;-61
2021/08/01 09:13:58;;;;;;;7.00;5.40;;;;;;;;;;5010880;28;20085;-62
2021/08/01 09:16:44;;;;;;;7.20;5.75;;;;;;;;;;5010051;28;20021;-62
2021/08/01 09:19:37;;;;;;;7.07;5.40;;;;;;;;;;5009740;28;20025;-62
2021/08/01 09:22:22;;;;;;;6.20;4.80;;;;;;;;;;5008908;28;20124;-61
2021/08/01 09:24:50;;;;;;;7.15;4.95;;;;;;;;;;5008814;28;20488;-62
2021/08/01 09:27:29;;;;;;;8.90;5.30;;;;;;;;;;5009171;28;20036;-61
2021/08/01 09:29:55;;;;;;;9.95;5.22;;;;;;;;;;5001649;28;20105;-62
2021/08/01 09:32:21;;;;;;;9.73;5.20;;;;;;;;;;5008678;28;20444;-61
2021/08/01 09:34:47;;;;;;;6.65;5.30;;;;;;;;;;5008858;28;20022;-61
2021/08/01 09:37:14;;;;;;;5.80;4.50;;;;;;;;;;5010262;28;20116;-62
2021/08/01 09:39:41;;;;;;;5.90;5.30;;;;;;;;;;5008039;28;20030;-61
2021/08/01 09:42:08;;;;;;;7.68;5.25;;;;;;;;;;5009917;28;20026;-61
2021/08/01 09:44:39;;;;;;;9.23;5.22;;;;;;;;;;5009900;28;20033;-61
2021/08/01 09:47:06;;;;;;;7.38;5.32;;;;;;;;;;5009750;28;20107;-61
2021/08/01 09:49:32;;;;;;;10.02;5.38;;;;;;;;;;5008393;28;20568;-61
2021/08/01 09:52:01;;;;;;;5.97;5.15;;;;;;;;;;5009631;28;20050;-61
2021/08/01 09:54:44;;;;;;;7.55;5.43;;;;;;;;;;5009892;28;20032;-62
2021/08/01 09:57:17;;;;;;;9.55;5.43;;;;;;;;;;5008515;28;20033;-61
2021/08/01 09:59:42;;;;;;;7.15;5.10;;;;;;;;;;5008795;28;20570;-61
2021/08/01 10:02:08;;;;;;;10.55;7.28;;;;;;;;;;5008811;28;20128;-61
2021/08/01 10:04:45;;;;;;;17.52;8.30;;;;;;;;;;5009287;28;20064;-60
2021/08/01 10:07:13;;;;;;;8.30;5.75;;;;;;;;;;5008807;28;20033;-61
2021/08/01 10:09:43;;;;;;;7.40;5.70;;;;;;;;;;5008514;28;20095;-61
2021/08/01 10:12:09;;;;;;;6.82;5.10;;;;;;;;;;5008236;28;20041;-61
2021/08/01 10:14:36;;;;;;;5.70;5.13;;;;;;;;;;5009219;28;20136;-61
2021/08/01 10:17:03;;;;;;;9.10;6.25;;;;;;;;;;5008921;28;20028;-61
2021/08/01 10:19:29;;;;;;;8.25;5.45;;;;;;;;;;5008610;28;20029;-60
2021/08/01 10:21:57;;;;;;;7.05;5.63;;;;;;;;;;5007566;28;20025;-61
2021/08/01 10:24:30;;;;;;;6.33;5.20;;;;;;;;;;5009486;28;20042;-60
2021/08/01 10:27:00;;;;;;;5.43;4.80;;;;;;;;;;5001774;28;20563;-60
2021/08/01 10:29:43;;;;;;;4.85;4.35;;;;;;;;;;5008106;28;20033;-59
2021/08/01 10:32:10;;;;;;;5.68;4.78;;;;;;;;;;5002708;28;20389;-60
2021/08/01 10:34:58;;;;;;;6.43;4.70;;;;;;;;;;5009441;28;20030;-61
2021/08/01 10:37:26;;;;;;;5.90;4.82;;;;;;;;;;5008951;28;20033;-61
2021/08/01 10:39:56;;;;;;;5.38;4.50;;;;;;;;;;5008314;28;20075;-61
2021/08/01 10:42:24;;;;;;;6.18;5.13;;;;;;;;;;5008897;28;20070;-61
2021/08/01 10:44:49;;;;;;;6.05;4.68;;;;;;;;;;5008655;28;20485;-61
2021/08/01 10:47:15;;;;;;;6.10;4.60;;;;;;;;;;5008708;28;20037;-61
2021/08/01 10:49:43;;;;;;;8.30;5.03;;;;;;;;;;5008297;28;20071;-61
2021/08/01 10:52:11;;;;;;;5.82;4.43;;;;;;;;;;5008429;28;20087;-61
2021/08/01 10:54:52;;;;;;;9.13;5.65;;;;;;;;;;5008111;28;20087;-61
2021/08/01 10:57:19;;;;;;;6.57;4.40;;;;;;;;;;5007620;28;20034;-61
2021/08/01 10:59:44;;;;;;;6.28;4.20;;;;;;;;;;5008181;28;20084;-61
2021/08/01 11:02:26;;;;;;;6.85;4.35;;;;;;;;;;5008118;28;20115;-61
2021/08/01 11:04:53;;;;;;;7.13;4.18;;;;;;;;;;5007498;28;20065;-61
2021/08/01 11:07:28;;;;;;;5.55;4.10;;;;;;;;;;5008292;28;20045;-62
2021/08/01 11:10:10;;;;;;;9.80;5.15;;;;;;;;;;5007921;28;20034;-61
2021/08/01 11:12:36;;;;;;;8.10;5.00;;;;;;;;;;5008209;28;20030;-61
2021/08/01 11:15:10;;;;;;;5.82;4.85;;;;;;;;;;5009012;28;20018;-59
2021/08/01 11:17:51;;;;;;;4.82;4.25;;;;;;;;;;5007588;28;20088;-60
2021/08/01 11:20:16;;;;;;;5.18;4.10;;;;;;;;;;5003893;28;20125;-60
2021/08/01 11:22:44;;;;;;;6.25;4.50;;;;;;;;;;5008691;28;20524;-59
2021/08/01 11:25:22;;;;;;;5.75;4.07;;;;;;;;;;5009062;28;20550;-61
2021/08/01 11:28:12;;;;;;;4.88;4.10;;;;;;;;;;5010209;28;20500;-60
2021/08/01 11:30:53;;;;;;;5.45;4.13;;;;;;;;;;5012173;28;20026;-61
2021/08/01 11:33:30;;;;;;;4.90;3.90;;;;;;;;;;5011612;28;20038;-60
2021/08/01 11:36:17;;;;;;;5.90;3.67;;;;;;;;;;5010749;28;20037;-60
2021/08/01 11:38:51;;;;;;;5.13;3.60;;;;;;;;;;5011537;28;20400;-61
2021/08/01 11:41:43;;;;;;;5.68;3.53;;;;;;;;;;5012143;28;20030;-62
2021/08/01 11:44:21;;;;;;;6.40;3.63;;;;;;;;;;5005965;28;20044;-62
2021/08/01 11:46:55;;;;;;;4.57;3.33;;;;;;;;;;5011446;28;20505;-62
2021/08/01 11:49:37;;;;;;;6.47;3.40;;;;;;;;;;5011642;28;20044;-62
2021/08/01 11:52:05;;;;;;;4.75;3.40;;;;;;;;;;5011363;28;20562;-61
2021/08/01 11:54:43;;;;;;;4.22;3.38;;;;;;;;;;5010668;28;20026;-61
2021/08/01 11:57:10;;;;;;;7.40;5.53;;;;;;;;;;5007855;28;20496;-61
2021/08/01 11:59:37;;;;;;;5.78;3.28;;;;;;;;;;5010325;28;20038;-62
2021/08/01 12:02:08;;;;;;;6.53;4.00;;;;;;;;;;5008721;28;20373;-62
2021/08/01 12:04:33;;;;;;;6.07;3.83;;;;;;;;;;5011743;28;20062;-62
2021/08/01 12:06:59;;;;;;;4.75;3.22;;;;;;;;;;5009788;28;20060;-62
2021/08/01 12:09:26;;;;;;;5.22;3.88;;;;;;;;;;5010922;28;20033;-62
2021/08/01 12:11:57;;;;;;;7.20;4.03;;;;;;;;;;5009792;28;20564;-62
2021/08/01 12:14:31;;;;;;;6.05;3.55;;;;;;;;;;5011984;28;20029;-62
2021/08/01 12:16:58;;;;;;;6.45;3.65;;;;;;;;;;5010528;28;20515;-60
2021/08/01 12:19:26;;;;;;;3.83;3.30;;;;;;;;;;5010702;28;20495;-60
2021/08/01 12:21:55;;;;;;;6.45;3.70;;;;;;;;;;5010919;28;20021;-61
2021/08/01 12:24:33;;;;;;;4.78;3.50;;;;;;;;;;5011390;28;20073;-61
2021/08/01 12:27:04;;;;;;;9.52;3.90;;;;;;;;;;5011412;28;20036;-61
2021/08/01 12:29:44;;;;;;;4.53;3.75;;;;;;;;;;5011133;28;20045;-62
2021/08/01 12:32:26;;;;;;;4.60;3.58;;;;;;;;;;5007447;28;20440;-62
2021/08/01 12:35:13;;;;;;;6.43;3.72;;;;;;;;;;5003872;28;20441;-61
2021/08/01 12:38:16;;;;;;;4.00;3.42;;;;;;;;;;5010152;28;20378;-61
2021/08/01 12:40:43;;;;;;;5.82;3.60;;;;;;;;;;5010741;28;20552;-61
2021/08/01 12:43:15;;;;;;;6.53;3.80;;;;;;;;;;5010781;28;20026;-61
2021/08/01 12:45:47;;;;;;;6.47;4.00;;;;;;;;;;5011018;28;20519;-61
2021/08/01 12:48:22;;;;;;;5.40;4.30;;;;;;;;;;5009534;28;20026;-61
2021/08/01 12:50:50;;;;;;;5.38;3.65;;;;;;;;;;5025169;28;20030;-61
2021/08/01 12:53:19;;;;;;;4.43;3.50;;;;;;;;;;5010742;28;20018;-61
2021/08/01 12:55:49;;;;;;;4.93;3.70;;;;;;;;;;5010730;28;20184;-61
2021/08/01 12:58:14;;;;;;;5.45;3.90;;;;;;;;;;5010305;28;20112;-61
2021/08/01 13:00:57;;;;;;;7.22;4.13;;;;;;;;;;5010627;28;20491;-61
2021/08/01 13:03:44;;;;;;;5.85;3.92;;;;;;;;;;5010433;28;20116;-61
2021/08/01 13:06:12;;;;;;;4.28;3.88;;;;;;;;;;5010207;28;20068;-61
2021/08/01 13:08:46;;;;;;;5.35;4.03;;;;;;;;;;5009768;28;20025;-61
2021/08/01 13:11:27;;;;;;;7.38;4.20;;;;;;;;;;5010564;28;20030;-61
2021/08/01 13:13:57;;;;;;;4.53;3.80;;;;;;;;;;5010755;28;20029;-61
2021/08/01 13:16:24;;;;;;;4.60;3.88;;;;;;;;;;5009129;28;20527;-61
2021/08/01 13:19:07;;;;;;;4.47;4.00;;;;;;;;;;5009838;28;20030;-62
2021/08/01 13:21:33;;;;;;;7.50;4.05;;;;;;;;;;5002863;28;20037;-61
2021/08/01 13:24:12;;;;;;;4.43;3.60;;;;;;;;;;5009384;28;20022;-61
2021/08/01 13:26:38;;;;;;;4.57;4.03;;;;;;;;;;5008966;28;20381;-61
2021/08/01 13:29:19;;;;;;;4.53;3.60;;;;;;;;;;5009642;28;20092;-61
2021/08/01 13:31:47;;;;;;;3.85;3.40;;;;;;;;;;5009251;28;20109;-61
2021/08/01 13:34:18;;;;;;;7.22;3.45;;;;;;;;;;5010430;28;20029;-61
2021/08/01 13:36:57;;;;;;;5.57;3.45;;;;;;;;;;5009915;28;20029;-61
2021/08/01 13:39:24;;;;;;;;;;;;;;;;;;5008978;28;20030;-61
2021/08/01 13:41:58;;;;;;;4.20;3.20;;;;;;;;;;5008058;28;20004;-61
2021/08/01 13:44:23;;;;;;;3.70;3.30;;;;;;;;;;5023572;28;20519;-61
2021/08/01 13:47:22;;;;;;;5.60;3.40;;;;;;;;;;5009588;28;20038;-61
2021/08/01 13:49:53;;;;;;;3.38;3.08;;;;;;;;;;5009377;28;20039;-62
2021/08/01 13:52:25;;;;;;;3.65;2.85;;;;;;;;;;5009568;28;20053;-61
2021/08/01 13:54:51;;;;;;;3.70;2.90;;;;;;;;;;5009963;28;20026;-61
2021/08/01 13:57:18;;;;;;;3.50;3.20;;;;;;;;;;5008950;28;20068;-61
2021/08/01 13:59:44;;;;;;;6.18;3.90;;;;;;;;;;5008439;28;20091;-61
2021/08/01 14:02:10;;;;;;;3.88;3.40;;;;;;;;;;5008971;28;20025;-61
2021/08/01 14:04:36;;;;;;;3.88;3.17;;;;;;;;;;5008188;28;20042;-61
2021/08/01 14:07:03;;;;;;;5.55;3.70;;;;;;;;;;5007460;28;20117;-61
2021/08/01 14:09:29;;;;;;;3.38;3.08;;;;;;;;;;5012108;28;20017;-62
2021/08/01 14:11:54;;;;;;;4.80;3.13;;;;;;;;;;5009115;28;20057;-62
2021/08/01 14:14:20;;;;;;;4.22;3.10;;;;;;;;;;5009603;28;20184;-63
2021/08/01 14:16:47;;;;;;;4.30;3.10;;;;;;;;;;5008226;28;20057;-62
2021/08/01 14:19:13;;;;;;;5.72;3.40;;;;;;;;;;5007443;28;20026;-63
2021/08/01 14:21:39;;;;;;;4.22;3.55;;;;;;;;;;5006762;28;20088;-63
2021/08/01 14:24:05;;;;;;;3.20;2.88;;;;;;;;;;5009982;28;20033;-63
2021/08/01 14:26:34;;;;;;;4.60;3.60;;;;;;;;;;5009645;28;20324;-63
2021/08/01 14:29:00;;;;;;;;;;;;;;;;;;5009196;28;20022;-63
2021/08/01 14:31:27;;;;;;;5.40;3.60;;;;;;;;;;5007585;28;20048;-63
2021/08/01 14:33:56;;;;;;;3.58;3.28;;;;;;;;;;5009326;28;20021;-61
2021/08/01 14:36:22;;;;;;;3.88;3.17;;;;;;;;;;5009402;28;20018;-62
2021/08/01 14:38:48;;;;;;;5.65;3.25;;;;;;;;;;4998115;28;20037;-63
2021/08/01 14:41:14;;;;;;;6.43;3.70;;;;;;;;;;5009305;28;20030;-62
2021/08/01 14:43:43;;;;;;;5.78;3.30;;;;;;;;;;5009018;28;20521;-62
2021/08/01 14:46:09;;;;;;;;;;;;;;;;;;5009159;28;20101;-62
2021/08/01 14:48:35;;;;;;;4.57;3.30;;;;;;;;;;5013039;28;20012;-62
2021/08/01 14:51:10;;;;;;;3.63;3.20;;;;;;;;;;5008920;28;20049;-62
2021/08/01 14:53:36;;;;;;;4.00;3.40;;;;;;;;;;5008708;28;20210;-62